createdAt,value
2022-11-06T00:00:23.407Z,101437.69
2022-11-06T00:02:51.758Z,101435.38
2022-11-06T00:05:38.968Z,101448.88
2022-11-06T00:08:06.926Z,101450.44
2022-11-06T00:10:35.748Z,101456.03
2022-11-06T00:13:04.552Z,101448.09
2022-11-06T00:15:32.910Z,101450.38
2022-11-06T00:18:00.622Z,101453.47
2022-11-06T00:20:29.211Z,101457.41
2022-11-06T00:22:57.778Z,101460.66
2022-11-06T00:25:26.528Z,101455.22
2022-11-06T00:27:55.167Z,101453.16
2022-11-06T00:30:23.968Z,101467.13
2022-11-06T00:32:52.237Z,101463.91
2022-11-06T00:35:20.125Z,101463.66
2022-11-06T00:37:48.706Z,101460.59
2022-11-06T00:40:17.348Z,101463.06
2022-11-06T00:42:45.573Z,101478.88
2022-11-06T00:45:14.185Z,101477.63
2022-11-06T00:47:42.315Z,101469.94
2022-11-06T00:50:13.998Z,101471.78
2022-11-06T00:52:43.028Z,101461.91
2022-11-06T00:55:11.360Z,101465.47
2022-11-06T00:57:39.203Z,101469.59
2022-11-06T01:00:08.286Z,101462.31
2022-11-06T01:02:37.217Z,101457.16
2022-11-06T01:05:06.709Z,101464.06
2022-11-06T01:07:34.868Z,101451.16
2022-11-06T01:10:02.713Z,101460.53
2022-11-06T01:12:35.248Z,101464.00
2022-11-06T01:15:03.624Z,101461.03
2022-11-06T01:17:35.165Z,101461.03
2022-11-06T01:20:04.483Z,101460.91
2022-11-06T01:22:33.207Z,101458.59
2022-11-06T01:25:01.329Z,101458.13
2022-11-06T01:27:29.893Z,101455.22
2022-11-06T01:29:58.470Z,101455.81
2022-11-06T01:32:26.510Z,101457.97
2022-11-06T01:34:54.516Z,101461.03
2022-11-06T01:37:22.736Z,101468.72
2022-11-06T01:39:53.696Z,101458.28
2022-11-06T01:42:22.859Z,101462.78
2022-11-06T01:45:14.651Z,101458.81
2022-11-06T01:47:43.898Z,101452.22
2022-11-06T01:50:13.502Z,101456.97
2022-11-06T01:52:42.408Z,101452.03
2022-11-06T01:55:13.764Z,101452.31
2022-11-06T01:57:43.154Z,101449.53
2022-11-06T02:00:11.542Z,101447.34
2022-11-06T02:02:40.868Z,101444.16
2022-11-06T02:05:10.013Z,101455.28
2022-11-06T02:07:38.195Z,101457.38
2022-11-06T02:10:06.267Z,101466.09
2022-11-06T02:12:53.107Z,101468.16
2022-11-06T02:15:26.803Z,101466.56
2022-11-06T02:18:07.461Z,101461.38
2022-11-06T02:20:42.826Z,101463.13
2022-11-06T02:23:23.914Z,101458.28
2022-11-06T02:25:51.992Z,101456.97
2022-11-06T02:28:29.161Z,101465.81
2022-11-06T02:30:58.923Z,101453.03
2022-11-06T02:33:34.817Z,101461.63
2022-11-06T02:36:09.077Z,101459.44
2022-11-06T02:38:39.581Z,101467.28
2022-11-06T02:41:09.422Z,101461.91
2022-11-06T02:43:42.858Z,101473.13
2022-11-06T02:46:14.240Z,101467.56
2022-11-06T02:48:45.893Z,101461.03
2022-11-06T02:51:16.507Z,101467.97
2022-11-06T02:53:46.124Z,101475.19
2022-11-06T02:56:19.635Z,101472.22
2022-11-06T02:58:49.296Z,101474.94
2022-11-06T03:01:18.600Z,101480.19
2022-11-06T03:03:48.867Z,101483.66
2022-11-06T03:06:22.214Z,101485.13
2022-11-06T03:08:55.865Z,101486.34
2022-11-06T03:11:26.813Z,101486.44
2022-11-06T03:13:58.795Z,101488.47
2022-11-06T03:16:35.151Z,101487.28
2022-11-06T03:19:06.630Z,101489.16
2022-11-06T03:21:43.801Z,101485.09
2022-11-06T03:24:15.809Z,101477.22
2022-11-06T03:26:49.179Z,101479.91
2022-11-06T03:29:17.857Z,101480.41
2022-11-06T03:32:18.081Z,101479.91
2022-11-06T03:34:53.340Z,101481.91
2022-11-06T03:37:30.527Z,101488.75
2022-11-06T03:40:00.147Z,101483.94
2022-11-06T03:42:29.971Z,101491.19
2022-11-06T03:45:01.108Z,101480.63
2022-11-06T03:47:39.612Z,101478.72
2022-11-06T03:50:11.168Z,101493.09
2022-11-06T03:52:51.093Z,101496.00
2022-11-06T03:55:21.711Z,101492.47
2022-11-06T03:57:50.100Z,101490.69
2022-11-06T04:00:21.569Z,101497.09
2022-11-06T04:02:54.164Z,101494.41
2022-11-06T04:05:24.474Z,101493.81
2022-11-06T04:08:13.855Z,101492.66
2022-11-06T04:11:02.877Z,101498.88
2022-11-06T04:13:51.535Z,101492.13
2022-11-06T04:16:19.323Z,101497.44
2022-11-06T04:18:47.949Z,101492.53
2022-11-06T04:21:44.014Z,101494.69
2022-11-06T04:24:40.460Z,101492.94
2022-11-06T04:27:18.575Z,101488.28
2022-11-06T04:29:47.084Z,101490.41
2022-11-06T04:32:22.938Z,101487.88
2022-11-06T04:35:00.327Z,101487.44
2022-11-06T04:37:36.024Z,101488.38
2022-11-06T04:40:13.397Z,101478.88
2022-11-06T04:42:47.242Z,101489.44
2022-11-06T04:45:18.183Z,101485.28
2022-11-06T04:47:46.869Z,101491.63
2022-11-06T04:50:16.816Z,101494.69
2022-11-06T04:52:46.378Z,101498.63
2022-11-06T04:55:14.110Z,101495.00
2022-11-06T04:57:42.008Z,101496.88
2022-11-06T05:00:14.617Z,101498.16
2022-11-06T05:02:43.421Z,101492.94
2022-11-06T05:05:11.697Z,101491.06
2022-11-06T05:07:42.654Z,101487.16
2022-11-06T05:10:11.566Z,101489.03
2022-11-06T05:12:40.725Z,101497.75
2022-11-06T05:15:08.838Z,101482.78
2022-11-06T05:17:37.264Z,101485.53
2022-11-06T05:20:06.236Z,101482.19
2022-11-06T05:22:53.687Z,101493.81
2022-11-06T05:25:22.143Z,101490.75
2022-11-06T05:27:50.184Z,101490.63
2022-11-06T05:30:19.051Z,101490.75
2022-11-06T05:32:47.588Z,101503.09
2022-11-06T05:35:16.008Z,101502.22
2022-11-06T05:37:44.671Z,101504.44
2022-11-06T05:40:13.624Z,101507.16
2022-11-06T05:42:42.345Z,101504.53
2022-11-06T05:45:11.013Z,101512.09
2022-11-06T05:47:42.997Z,101510.06
2022-11-06T05:50:11.187Z,101514.59
2022-11-06T05:52:39.338Z,101518.34
2022-11-06T05:55:13.226Z,101527.03
2022-11-06T05:57:42.811Z,101522.63
2022-11-06T06:00:13.256Z,101523.34
2022-11-06T06:02:42.944Z,101523.25
2022-11-06T06:05:11.436Z,101528.63
2022-11-06T06:07:40.399Z,101525.72
2022-11-06T06:10:10.194Z,101527.34
2022-11-06T06:12:39.716Z,101527.81
2022-11-06T06:15:07.993Z,101530.50
2022-11-06T06:17:36.712Z,101533.50
2022-11-06T06:20:05.444Z,101534.88
2022-11-06T06:22:33.837Z,101535.69
2022-11-06T06:25:02.624Z,101538.66
2022-11-06T06:27:32.345Z,101535.88
2022-11-06T06:30:00.448Z,101540.69
2022-11-06T06:32:28.198Z,101544.09
2022-11-06T06:34:57.082Z,101544.16
2022-11-06T06:37:25.395Z,101553.19
2022-11-06T06:39:53.208Z,101540.63
2022-11-06T06:42:21.958Z,101552.00
2022-11-06T06:44:51.184Z,101549.81
2022-11-06T06:47:19.548Z,101551.13
2022-11-06T06:49:47.081Z,101555.47
2022-11-06T06:52:15.982Z,101559.84
2022-11-06T06:54:44.792Z,101559.41
2022-11-06T06:57:12.967Z,101563.16
2022-11-06T06:59:41.463Z,101539.09
2022-11-06T07:02:10.221Z,101562.44
2022-11-06T07:04:38.948Z,101562.09
2022-11-06T07:07:07.416Z,101570.50
2022-11-06T07:09:36.245Z,101567.66
2022-11-06T07:12:04.561Z,101558.47
2022-11-06T07:14:32.540Z,101565.94
2022-11-06T07:17:01.322Z,101555.34
2022-11-06T07:19:32.824Z,101559.41
2022-11-06T07:22:01.803Z,101562.88
2022-11-06T07:24:30.647Z,101557.94
2022-11-06T07:26:59.709Z,101563.72
2022-11-06T07:29:27.910Z,101565.84
2022-11-06T07:31:56.709Z,101568.84
2022-11-06T07:34:24.880Z,101564.78
2022-11-06T07:36:52.759Z,101561.88
2022-11-06T07:39:20.852Z,101569.84
2022-11-06T07:41:49.043Z,101566.94
2022-11-06T07:44:16.982Z,101564.47
2022-11-06T07:46:45.141Z,101565.03
2022-11-06T07:49:13.657Z,101564.47
2022-11-06T07:51:41.924Z,101562.72
2022-11-06T07:54:11.216Z,101569.97
2022-11-06T07:56:38.473Z,101569.97
2022-11-06T07:59:05.838Z,101571.19
2022-11-06T08:01:33.765Z,101584.38
2022-11-06T08:04:01.669Z,101566.66
2022-11-06T08:06:30.162Z,101570.16
2022-11-06T08:08:59.121Z,101574.94
2022-11-06T08:11:28.161Z,101578.84
2022-11-06T08:13:56.968Z,101574.19
2022-11-06T08:16:26.160Z,101577.88
2022-11-06T08:18:54.718Z,101586.97
2022-11-06T08:21:23.491Z,101578.38
2022-11-06T08:23:51.746Z,101577.63
2022-11-06T08:26:20.529Z,101572.75
2022-11-06T08:28:48.821Z,101576.22
2022-11-06T08:31:16.946Z,101581.31
2022-11-06T08:33:45.822Z,101581.50
2022-11-06T08:36:14.066Z,101579.81
2022-11-06T08:38:42.612Z,101587.03
2022-11-06T08:41:13.728Z,101593.34
2022-11-06T08:43:42.010Z,101591.44
2022-11-06T08:46:10.181Z,101587.19
2022-11-06T08:48:39.353Z,101583.47
2022-11-06T08:51:08.320Z,101580.72
2022-11-06T08:53:37.379Z,101585.44
2022-11-06T08:56:05.604Z,101588.41
2022-11-06T08:58:34.334Z,101593.91
2022-11-06T09:01:03.281Z,101593.41
2022-11-06T09:03:31.974Z,101591.75
2022-11-06T09:05:59.991Z,101593.66
2022-11-06T09:08:27.978Z,101593.72
2022-11-06T09:10:58.859Z,101598.13
2022-11-06T09:13:27.689Z,101591.59
2022-11-06T09:15:56.092Z,101590.56
2022-11-06T09:18:24.505Z,101595.69
2022-11-06T09:20:56.696Z,101598.28
2022-11-06T09:23:25.238Z,101591.72
2022-11-06T09:25:53.537Z,101596.00
2022-11-06T09:28:21.510Z,101609.47
2022-11-06T09:30:50.396Z,101605.38
2022-11-06T09:33:19.702Z,101609.94
2022-11-06T09:35:49.114Z,101600.03
2022-11-06T09:38:17.084Z,101600.59
2022-11-06T09:40:47.722Z,101610.91
2022-11-06T09:43:50.154Z,101605.41
2022-11-06T09:46:19.516Z,101597.41
2022-11-06T09:48:51.979Z,101605.84
2022-11-06T09:51:23.408Z,101606.19
2022-11-06T09:53:55.363Z,101610.59
2022-11-06T09:56:26.117Z,101593.50
2022-11-06T09:58:56.299Z,101603.94
2022-11-06T10:01:27.620Z,101607.03
2022-11-06T10:04:00.297Z,101607.59
2022-11-06T10:06:29.785Z,101607.75
2022-11-06T10:09:01.898Z,101605.00
2022-11-06T10:11:52.996Z,101596.63
2022-11-06T10:14:42.923Z,101608.75
2022-11-06T10:17:23.481Z,101609.69
2022-11-06T10:20:05.090Z,101601.66
2022-11-06T10:22:40.699Z,101599.00
2022-11-06T10:25:28.671Z,101596.81
2022-11-06T10:28:04.993Z,101595.38
2022-11-06T10:30:56.219Z,101596.03
2022-11-06T10:33:29.577Z,101596.03
2022-11-06T10:36:07.767Z,101593.78
2022-11-06T10:38:39.889Z,101597.19
2022-11-06T10:41:16.800Z,101590.28
2022-11-06T10:43:55.580Z,101594.22
2022-11-06T10:46:23.878Z,101594.34
2022-11-06T10:49:06.701Z,101588.84
2022-11-06T10:51:54.404Z,101591.59
2022-11-06T10:54:51.892Z,101587.78
2022-11-06T10:57:23.704Z,101578.38
2022-11-06T10:59:51.789Z,101591.50
2022-11-06T11:02:28.795Z,101579.41
2022-11-06T11:04:58.262Z,101582.91
2022-11-06T11:07:30.871Z,101583.19
2022-11-06T11:10:00.385Z,101588.25
2022-11-06T11:12:29.982Z,101576.81
2022-11-06T11:15:13.104Z,101568.97
2022-11-06T11:17:42.298Z,101579.22
2022-11-06T11:20:30.389Z,101570.41
2022-11-06T11:23:26.524Z,101576.03
2022-11-06T11:25:58.936Z,101574.34
2022-11-06T11:28:37.267Z,101569.44
2022-11-06T11:31:08.512Z,101573.19
2022-11-06T11:33:38.404Z,101565.66
2022-11-06T11:36:07.418Z,101575.50
2022-11-06T11:38:36.759Z,101567.09
2022-11-06T11:41:20.058Z,101572.75
2022-11-06T11:44:15.032Z,101571.19
2022-11-06T11:46:50.087Z,101556.66
2022-11-06T11:49:32.134Z,101571.88
2022-11-06T11:52:04.542Z,101571.19
2022-11-06T11:54:35.187Z,101579.59
2022-11-06T11:57:07.363Z,101565.50
2022-11-06T11:59:53.636Z,101568.53
2022-11-06T12:02:28.325Z,101545.75
2022-11-06T12:04:59.369Z,101573.91
2022-11-06T12:07:32.844Z,101565.09
2022-11-06T12:10:01.932Z,101566.06
2022-11-06T12:12:34.490Z,101563.34
2022-11-06T12:15:19.629Z,101569.28
2022-11-06T12:17:51.119Z,101561.88
2022-11-06T12:20:22.574Z,101562.44
2022-11-06T12:22:51.694Z,101562.34
2022-11-06T12:25:26.690Z,101556.91
2022-11-06T12:27:59.586Z,101562.44
2022-11-06T12:30:27.170Z,101563.78
2022-11-06T12:33:14.155Z,101557.97
2022-11-06T12:35:44.843Z,101558.47
2022-11-06T12:38:22.089Z,101551.69
2022-11-06T12:40:55.582Z,101542.13
2022-11-06T12:43:42.316Z,101555.06
2022-11-06T12:46:13.474Z,101547.69
2022-11-06T12:48:41.550Z,101535.72
2022-11-06T12:51:09.339Z,101539.78
2022-11-06T12:53:37.579Z,101530.34
2022-11-06T12:56:18.959Z,101535.56
2022-11-06T12:58:56.035Z,101529.81
2022-11-06T13:01:24.178Z,101516.28
2022-11-06T13:04:04.570Z,101518.78
2022-11-06T13:06:36.301Z,101517.47
2022-11-06T13:09:05.110Z,101523.22
2022-11-06T13:11:38.814Z,101514.25
2022-11-06T13:14:12.801Z,101517.22
2022-11-06T13:17:01.484Z,101529.19
2022-11-06T13:19:34.167Z,101521.31
2022-11-06T13:22:15.238Z,101514.91
2022-11-06T13:24:54.515Z,101515.75
2022-11-06T13:27:33.747Z,101506.97
2022-11-06T13:30:14.050Z,101507.28
2022-11-06T13:32:46.428Z,101507.09
2022-11-06T13:35:19.002Z,101505.84
2022-11-06T13:37:49.363Z,101515.28
2022-11-06T13:40:17.551Z,101513.53
2022-11-06T13:43:06.988Z,101517.34
2022-11-06T13:45:44.363Z,101514.69
2022-11-06T13:48:16.238Z,101520.81
2022-11-06T13:51:02.722Z,101524.13
2022-11-06T13:53:44.440Z,101520.44
2022-11-06T13:56:29.550Z,101514.84
2022-11-06T13:59:19.134Z,101519.50
2022-11-06T14:01:50.977Z,101514.84
2022-11-06T14:04:38.076Z,101519.63
2022-11-06T14:07:09.777Z,101518.66
2022-11-06T14:09:38.367Z,101517.09
2022-11-06T14:12:14.072Z,101518.66
2022-11-06T14:14:43.999Z,101518.19
2022-11-06T14:17:17.810Z,101513.09
2022-11-06T14:19:50.465Z,101501.38
2022-11-06T14:22:28.302Z,101499.63
2022-11-06T14:25:01.516Z,101503.84
2022-11-06T14:27:30.724Z,101489.78
2022-11-06T14:30:19.920Z,101494.69
2022-11-06T14:32:49.524Z,101498.19
2022-11-06T14:35:30.606Z,101505.28
2022-11-06T14:38:11.852Z,101489.78
2022-11-06T14:40:40.542Z,101495.53
2022-11-06T14:43:26.010Z,101493.81
2022-11-06T14:45:57.493Z,101496.41
2022-11-06T14:48:51.771Z,101498.22
2022-11-06T14:51:25.932Z,101496.56
2022-11-06T14:53:58.541Z,101510.09
2022-11-06T14:56:28.749Z,101498.56
2022-11-06T14:58:57.985Z,101500.19
2022-11-06T15:01:27.881Z,101510.78
2022-11-06T15:04:00.888Z,101509.22
2022-11-06T15:06:32.685Z,101503.63
2022-11-06T15:09:03.814Z,101503.97
2022-11-06T15:11:33.059Z,101512.34
2022-11-06T15:14:06.095Z,101514.13
2022-11-06T15:16:39.344Z,101510.78
2022-11-06T15:19:12.910Z,101495.88
2022-11-06T15:21:47.632Z,101502.28
2022-11-06T15:24:23.377Z,101506.00
2022-11-06T15:26:58.194Z,101502.22
2022-11-06T15:29:30.531Z,101506.13
2022-11-06T15:32:06.566Z,101502.38
2022-11-06T15:34:37.119Z,101506.00
2022-11-06T15:37:13.657Z,101498.88
2022-11-06T15:39:43.439Z,101509.47
2022-11-06T15:42:17.588Z,101511.78
2022-11-06T15:44:47.229Z,101510.59
2022-11-06T15:47:21.293Z,101510.72
2022-11-06T15:49:49.531Z,101513.53
2022-11-06T15:52:19.837Z,101517.47
2022-11-06T15:54:48.770Z,101513.28
2022-11-06T15:57:20.377Z,101511.38
2022-11-06T15:59:49.507Z,101508.34
2022-11-06T16:02:23.064Z,101506.84
2022-11-06T16:04:53.203Z,101508.03
2022-11-06T16:07:22.006Z,101498.88
2022-11-06T16:09:51.166Z,101497.28
2022-11-06T16:12:20.275Z,101497.44
2022-11-06T16:14:48.964Z,101509.97
2022-11-06T16:17:18.902Z,101502.88
2022-11-06T16:19:47.806Z,101505.22
2022-11-06T16:22:20.167Z,101510.88
2022-11-06T16:24:48.806Z,101506.88
2022-11-06T16:27:17.641Z,101514.91
2022-11-06T16:29:47.572Z,101516.03
2022-11-06T16:32:17.395Z,101521.53
2022-11-06T16:34:47.921Z,101499.47
2022-11-06T16:37:19.071Z,101498.88
2022-11-06T16:39:50.005Z,101500.53
2022-11-06T16:42:24.425Z,101502.53
2022-11-06T16:45:00.115Z,101495.63
2022-11-06T16:47:29.066Z,101499.06
2022-11-06T16:49:58.486Z,101495.25
2022-11-06T16:52:34.756Z,101497.00
2022-11-06T16:55:03.006Z,101496.31
2022-11-06T16:57:43.535Z,101486.72
2022-11-06T17:00:17.493Z,101484.47
2022-11-06T17:02:54.255Z,101482.69
2022-11-06T17:05:26.674Z,101478.28
2022-11-06T17:08:13.801Z,101488.16
2022-11-06T17:10:43.237Z,101484.19
2022-11-06T17:13:17.344Z,101488.81
2022-11-06T17:15:52.850Z,101483.09
2022-11-06T17:18:22.089Z,101475.41
2022-11-06T17:20:55.363Z,101486.47
2022-11-06T17:23:27.695Z,101475.84
2022-11-06T17:26:04.217Z,101481.63
2022-11-06T17:28:33.320Z,101478.13
2022-11-06T17:31:01.075Z,101480.56
2022-11-06T17:33:29.057Z,101469.72
2022-11-06T17:35:57.432Z,101469.44
2022-11-06T17:38:25.984Z,101473.47
2022-11-06T17:40:54.130Z,101472.50
2022-11-06T17:43:22.365Z,101461.31
2022-11-06T17:45:51.169Z,101465.75
2022-11-06T17:48:19.084Z,101466.06
2022-11-06T17:51:06.364Z,101459.75
2022-11-06T17:53:35.074Z,101464.97
2022-11-06T17:56:04.316Z,101459.78
2022-11-06T17:58:33.160Z,101453.63
2022-11-06T18:01:05.544Z,101454.88
2022-11-06T18:03:36.730Z,101447.34
2022-11-06T18:06:05.706Z,101458.00
2022-11-06T18:08:34.658Z,101449.59
2022-11-06T18:11:03.078Z,101450.00
2022-11-06T18:13:31.956Z,101451.72
2022-11-06T18:15:59.917Z,101455.66
2022-11-06T18:18:28.398Z,101460.72
2022-11-06T18:20:56.503Z,101456.53
2022-11-06T18:23:25.087Z,101448.06
2022-11-06T18:25:54.265Z,101457.28
2022-11-06T18:28:23.885Z,101452.31
2022-11-06T18:30:53.161Z,101435.78
2022-11-06T18:33:20.871Z,101440.09
2022-11-06T18:35:49.023Z,101443.66
2022-11-06T18:38:18.031Z,101442.41
2022-11-06T18:40:50.405Z,101443.06
2022-11-06T18:43:20.059Z,101431.56
2022-11-06T18:45:48.224Z,101435.81
2022-11-06T18:48:21.099Z,101438.88
2022-11-06T18:50:49.887Z,101432.78
2022-11-06T18:53:18.504Z,101425.50
2022-11-06T18:55:47.679Z,101430.31
2022-11-06T18:58:17.044Z,101445.97
2022-11-06T19:00:45.399Z,101432.91
2022-11-06T19:03:15.065Z,101440.75
2022-11-06T19:05:48.056Z,101439.06
2022-11-06T19:08:16.397Z,101439.25
2022-11-06T19:10:44.725Z,101429.88
2022-11-06T19:13:13.743Z,101439.97
2022-11-06T19:15:41.919Z,101433.28
2022-11-06T19:18:10.407Z,101431.63
2022-11-06T19:20:42.549Z,101441.00
2022-11-06T19:23:14.595Z,101447.34
2022-11-06T19:25:43.567Z,101447.03
2022-11-06T19:28:12.355Z,101445.31
2022-11-06T19:30:40.976Z,101452.31
2022-11-06T19:33:09.980Z,101455.09
2022-11-06T19:35:38.648Z,101453.53
2022-11-06T19:38:07.565Z,101445.53
2022-11-06T19:40:35.920Z,101446.31
2022-11-06T19:43:04.464Z,101446.50
2022-11-06T19:45:34.092Z,101447.13
2022-11-06T19:48:02.064Z,101449.81
2022-11-06T19:50:58.276Z,101455.41
2022-11-06T19:53:22.031Z,101453.69
2022-11-06T19:55:50.828Z,101443.66
2022-11-06T19:58:20.809Z,101449.81
2022-11-06T20:00:49.034Z,101446.69
2022-11-06T20:03:17.531Z,101417.75
2022-11-06T20:05:46.936Z,101449.16
2022-11-06T20:08:15.660Z,101455.72
2022-11-06T20:10:44.609Z,101455.31
2022-11-06T20:13:15.862Z,101455.56
2022-11-06T20:15:44.945Z,101464.31
2022-11-06T20:18:12.857Z,101469.91
2022-11-06T20:20:40.924Z,101464.88
2022-11-06T20:23:09.471Z,101469.13
2022-11-06T20:25:37.812Z,101461.50
2022-11-06T20:28:06.265Z,101467.88
2022-11-06T20:30:34.995Z,101455.97
2022-11-06T20:33:03.961Z,101463.09
2022-11-06T20:35:34.559Z,101467.00
2022-11-06T20:38:02.662Z,101465.81
2022-11-06T20:40:31.965Z,101462.16
2022-11-06T20:43:03.148Z,101464.53
2022-11-06T20:45:31.702Z,101473.81
2022-11-06T20:48:00.468Z,101469.63
2022-11-06T20:50:29.322Z,101461.34
2022-11-06T20:52:57.810Z,101468.00
2022-11-06T20:55:25.851Z,101472.34
2022-11-06T20:57:53.827Z,101472.53
2022-11-06T21:00:22.086Z,101466.84
2022-11-06T21:02:50.431Z,101463.94
2022-11-06T21:05:18.725Z,101462.06
2022-11-06T21:07:46.946Z,101462.44
2022-11-06T21:10:15.204Z,101448.56
2022-11-06T21:12:43.221Z,101442.75
2022-11-06T21:15:12.167Z,101448.88
2022-11-06T21:17:43.769Z,101454.47
2022-11-06T21:20:12.041Z,101457.28
2022-11-06T21:22:41.291Z,101454.69
2022-11-06T21:25:11.997Z,101451.47
2022-11-06T21:27:41.312Z,101443.50
2022-11-06T21:30:09.692Z,101437.69
2022-11-06T21:32:38.731Z,101450.97
2022-11-06T21:35:07.471Z,101447.16
2022-11-06T21:37:36.364Z,101455.94
2022-11-06T21:40:04.887Z,101450.16
2022-11-06T21:42:33.282Z,101462.56
2022-11-06T21:45:02.161Z,101467.56
2022-11-06T21:47:30.870Z,101472.06
2022-11-06T21:49:59.014Z,101455.72
2022-11-06T21:52:46.331Z,101451.34
2022-11-06T21:55:33.524Z,101443.78
2022-11-06T21:58:03.064Z,101446.81
2022-11-06T22:00:31.286Z,101441.13
2022-11-06T22:03:00.141Z,101431.03
2022-11-06T22:05:28.027Z,101439.25
2022-11-06T22:07:56.500Z,101440.09
2022-11-06T22:10:25.640Z,101442.31
2022-11-06T22:12:53.659Z,101438.69
2022-11-06T22:15:21.925Z,101440.28
2022-11-06T22:17:50.748Z,101444.69
2022-11-06T22:20:19.765Z,101433.63
2022-11-06T22:22:47.698Z,101443.50
2022-11-06T22:25:16.374Z,101444.78
2022-11-06T22:27:45.420Z,101448.16
2022-11-06T22:30:13.849Z,101447.72
2022-11-06T22:32:42.083Z,101452.13
2022-11-06T22:35:11.279Z,101445.09
2022-11-06T22:37:40.258Z,101446.84
2022-11-06T22:40:08.586Z,101444.00
2022-11-06T22:42:36.388Z,101445.53
2022-11-06T22:45:05.437Z,101443.34
2022-11-06T22:47:33.727Z,101445.53
2022-11-06T22:50:01.585Z,101444.34
2022-11-06T22:52:30.501Z,101437.22
2022-11-06T22:54:58.252Z,101436.41
2022-11-06T22:57:26.151Z,101448.28
2022-11-06T22:59:54.248Z,101440.50
2022-11-06T23:02:23.638Z,101437.59
2022-11-06T23:04:52.851Z,101443.06
2022-11-06T23:07:21.491Z,101442.03
2022-11-06T23:09:49.968Z,101448.38
2022-11-06T23:12:18.791Z,101452.13
2022-11-06T23:14:46.774Z,101451.66
2022-11-06T23:17:15.363Z,101458.13
2022-11-06T23:19:44.361Z,101459.28
2022-11-06T23:22:31.148Z,101467.13
2022-11-06T23:25:00.663Z,101464.22
2022-11-06T23:27:28.409Z,101453.38
2022-11-06T23:30:01.521Z,101453.66
2022-11-06T23:32:30.912Z,101451.66
2022-11-06T23:34:59.672Z,101451.84
2022-11-06T23:37:28.120Z,101449.41
2022-11-06T23:39:55.853Z,101453.66
2022-11-06T23:42:27.145Z,101452.69
2022-11-06T23:45:27.365Z,101444.53
2022-11-06T23:47:55.790Z,101445.38
2022-11-06T23:50:23.816Z,101444.22
2022-11-06T23:52:52.780Z,101439.84
2022-11-06T23:55:20.491Z,101438.13
2022-11-06T23:57:49.494Z,101434.94
